sensor_id;sensor_type;location;lat;lon;timestamp;pressure;altitude;pressure_sealevel;temperature;humidity
50394;BME280;36308;46.312;25.288;2023-07-20T00:00:50;95632.72;;;20.54;73.77
50394;BME280;36308;46.312;25.288;2023-07-20T00:03:19;95638.19;;;20.54;73.99
50394;BME280;36308;46.312;25.288;2023-07-20T00:05:50;95634.31;;;20.55;73.94
50394;BME280;36308;46.312;25.288;2023-07-20T00:08:17;95625.19;;;20.51;74.14
50394;BME280;36308;46.312;25.288;2023-07-20T00:10:43;95629.53;;;20.52;74.13
50394;BME280;36308;46.312;25.288;2023-07-20T00:13:10;95627.91;;;20.51;74.14
50394;BME280;36308;46.312;25.288;2023-07-20T00:15:36;95623.25;;;20.52;74.34
50394;BME280;36308;46.312;25.288;2023-07-20T00:21:05;95617.00;;;20.51;74.02
50394;BME280;36308;46.312;25.288;2023-07-20T00:23:31;95611.53;;;20.51;74.15
50394;BME280;36308;46.312;25.288;2023-07-20T00:25:56;95599.03;;;20.50;74.07
50394;BME280;36308;46.312;25.288;2023-07-20T00:28:22;95615.41;;;20.50;74.00
50394;BME280;36308;46.312;25.288;2023-07-20T00:30:48;95608.34;;;20.49;73.96
50394;BME280;36308;46.312;25.288;2023-07-20T00:33:16;95600.16;;;20.49;74.10
50394;BME280;36308;46.312;25.288;2023-07-20T00:35:42;95604.13;;;20.52;74.24
50394;BME280;36308;46.312;25.288;2023-07-20T00:38:07;95601.41;;;20.52;74.18
50394;BME280;36308;46.312;25.288;2023-07-20T00:40:40;95602.56;;;20.51;74.13
50394;BME280;36308;46.312;25.288;2023-07-20T00:43:06;95595.16;;;20.51;74.47
50394;BME280;36308;46.312;25.288;2023-07-20T00:45:33;95592.88;;;20.53;74.14
50394;BME280;36308;46.312;25.288;2023-07-20T00:47:59;95585.84;;;20.52;73.99
50394;BME280;36308;46.312;25.288;2023-07-20T00:50:27;95574.09;;;20.52;73.95
50394;BME280;36308;46.312;25.288;2023-07-20T00:52:54;95564.00;;;20.52;73.83
50394;BME280;36308;46.312;25.288;2023-07-20T00:55:20;95562.38;;;20.51;73.75
50394;BME280;36308;46.312;25.288;2023-07-20T00:57:46;95561.13;;;20.49;73.77
50394;BME280;36308;46.312;25.288;2023-07-20T01:00:11;95569.00;;;20.50;73.66
50394;BME280;36308;46.312;25.288;2023-07-20T01:02:37;95566.25;;;20.50;73.80
50394;BME280;36308;46.312;25.288;2023-07-20T01:05:04;95569.31;;;20.49;73.66
50394;BME280;36308;46.312;25.288;2023-07-20T01:07:35;95567.69;;;20.48;73.80
50394;BME280;36308;46.312;25.288;2023-07-20T01:12:48;95559.03;;;20.46;73.74
50394;BME280;36308;46.312;25.288;2023-07-20T01:15:16;95558.25;;;20.45;73.67
50394;BME280;36308;46.312;25.288;2023-07-20T01:17:42;95554.72;;;20.45;73.48
50394;BME280;36308;46.312;25.288;2023-07-20T01:20:09;95552.31;;;20.43;73.58
50394;BME280;36308;46.312;25.288;2023-07-20T01:28:34;95555.72;;;20.40;73.39
50394;BME280;36308;46.312;25.288;2023-07-20T01:31:24;95560.72;;;20.38;73.39
50394;BME280;36308;46.312;25.288;2023-07-20T01:33:52;95563.00;;;20.36;73.40
50394;BME280;36308;46.312;25.288;2023-07-20T01:36:19;95560.25;;;20.36;73.22
50394;BME280;36308;46.312;25.288;2023-07-20T01:38:47;95557.06;;;20.34;73.30
50394;BME280;36308;46.312;25.288;2023-07-20T01:41:13;95563.97;;;20.31;73.17
50394;BME280;36308;46.312;25.288;2023-07-20T01:43:40;95558.38;;;20.28;73.34
50394;BME280;36308;46.312;25.288;2023-07-20T01:46:06;95555.66;;;20.28;73.40
50394;BME280;36308;46.312;25.288;2023-07-20T01:48:31;95561.44;;;20.26;73.17
50394;BME280;36308;46.312;25.288;2023-07-20T01:50:57;95568.38;;;20.24;73.29
50394;BME280;36308;46.312;25.288;2023-07-20T01:53:22;95566.75;;;20.23;73.15
50394;BME280;36308;46.312;25.288;2023-07-20T01:55:48;95561.97;;;20.19;73.27
50394;BME280;36308;46.312;25.288;2023-07-20T01:58:14;95572.41;;;20.17;73.27
50394;BME280;36308;46.312;25.288;2023-07-20T02:00:39;95575.78;;;20.14;73.15
50394;BME280;36308;46.312;25.288;2023-07-20T02:03:05;95575.78;;;20.14;73.25
50394;BME280;36308;46.312;25.288;2023-07-20T02:05:30;95571.00;;;20.11;73.28
50394;BME280;36308;46.312;25.288;2023-07-20T02:07:56;95560.75;;;20.08;73.21
50394;BME280;36308;46.312;25.288;2023-07-20T02:10:22;95560.63;;;20.05;73.39
50394;BME280;36308;46.312;25.288;2023-07-20T02:12:47;95554.88;;;19.97;73.32
50394;BME280;36308;46.312;25.288;2023-07-20T02:15:15;95559.53;;;19.97;73.33
50394;BME280;36308;46.312;25.288;2023-07-20T02:17:42;95558.38;;;19.98;73.35
50394;BME280;36308;46.312;25.288;2023-07-20T02:20:08;95561.78;;;19.95;73.42
50394;BME280;36308;46.312;25.288;2023-07-20T02:22:37;95556.19;;;19.91;73.31
50394;BME280;36308;46.312;25.288;2023-07-20T02:25:07;95554.91;;;19.89;73.56
50394;BME280;36308;46.312;25.288;2023-07-20T02:27:33;95549.78;;;19.87;73.43
50394;BME280;36308;46.312;25.288;2023-07-20T02:29:59;95545.78;;;19.85;73.48
50394;BME280;36308;46.312;25.288;2023-07-20T02:32:25;95548.03;;;19.83;73.68
50394;BME280;36308;46.312;25.288;2023-07-20T02:34:50;95544.84;;;19.81;73.52
50394;BME280;36308;46.312;25.288;2023-07-20T02:37:16;95559.59;;;19.79;73.60
50394;BME280;36308;46.312;25.288;2023-07-20T02:39:42;95559.13;;;19.77;73.65
50394;BME280;36308;46.312;25.288;2023-07-20T02:42:08;95552.41;;;19.75;73.73
50394;BME280;36308;46.312;25.288;2023-07-20T02:44:33;95554.66;;;19.73;73.40
50394;BME280;36308;46.312;25.288;2023-07-20T02:46:59;95557.72;;;19.71;73.75
50394;BME280;36308;46.312;25.288;2023-07-20T02:49:24;95558.34;;;19.68;73.68
50394;BME280;36308;46.312;25.288;2023-07-20T02:51:50;95552.09;;;19.68;73.86
50394;BME280;36308;46.312;25.288;2023-07-20T02:54:15;95548.44;;;19.64;73.78
50394;BME280;36308;46.312;25.288;2023-07-20T02:56:41;95553.41;;;19.62;73.54
50394;BME280;36308;46.312;25.288;2023-07-20T02:59:06;95545.53;;;19.60;73.57
50394;BME280;36308;46.312;25.288;2023-07-20T03:01:32;95529.84;;;19.57;73.65
50394;BME280;36308;46.312;25.288;2023-07-20T03:03:57;95540.75;;;19.57;73.72
50394;BME280;36308;46.312;25.288;2023-07-20T03:06:23;95543.00;;;19.55;73.79
50394;BME280;36308;46.312;25.288;2023-07-20T03:08:49;95540.59;;;19.53;73.74
50394;BME280;36308;46.312;25.288;2023-07-20T03:11:18;95543.66;;;19.52;73.80
50394;BME280;36308;46.312;25.288;2023-07-20T03:13:44;95544.31;;;19.49;73.86
50394;BME280;36308;46.312;25.288;2023-07-20T03:16:11;95548.94;;;19.48;73.84
50394;BME280;36308;46.312;25.288;2023-07-20T03:18:38;95557.47;;;19.47;73.98
50394;BME280;36308;46.312;25.288;2023-07-20T03:21:05;95546.56;;;19.47;74.07
50394;BME280;36308;46.312;25.288;2023-07-20T03:23:31;95555.88;;;19.46;73.99
50394;BME280;36308;46.312;25.288;2023-07-20T03:25:56;95552.66;;;19.44;73.76
50394;BME280;36308;46.312;25.288;2023-07-20T03:28:22;95554.13;;;19.41;73.84
50394;BME280;36308;46.312;25.288;2023-07-20T03:30:53;95564.88;;;19.37;73.83
50394;BME280;36308;46.312;25.288;2023-07-20T03:33:20;95558.00;;;19.31;73.97
50394;BME280;36308;46.312;25.288;2023-07-20T03:35:45;95558.00;;;19.31;73.78
50394;BME280;36308;46.312;25.288;2023-07-20T03:38:11;95562.97;;;19.29;74.05
50394;BME280;36308;46.312;25.288;2023-07-20T03:40:37;95568.41;;;19.29;73.95
50394;BME280;36308;46.312;25.288;2023-07-20T03:43:02;95558.81;;;19.23;74.04
50394;BME280;36308;46.312;25.288;2023-07-20T03:45:28;95572.28;;;19.28;74.26
50394;BME280;36308;46.312;25.288;2023-07-20T03:47:53;95570.66;;;19.27;74.17
50394;BME280;36308;46.312;25.288;2023-07-20T03:50:19;95573.88;;;19.29;74.15
50394;BME280;36308;46.312;25.288;2023-07-20T03:52:44;95562.69;;;19.22;74.23
50394;BME280;36308;46.312;25.288;2023-07-20T03:55:10;95576.59;;;19.29;74.32
50394;BME280;36308;46.312;25.288;2023-07-20T03:57:35;95577.06;;;19.31;74.47
50394;BME280;36308;46.312;25.288;2023-07-20T04:00:01;95578.69;;;19.32;74.38
50394;BME280;36308;46.312;25.288;2023-07-20T04:02:27;95569.38;;;19.33;74.51
50394;BME280;36308;46.312;25.288;2023-07-20T04:04:52;95584.25;;;19.36;74.60
50394;BME280;36308;46.312;25.288;2023-07-20T04:07:18;95581.22;;;19.37;74.55
50394;BME280;36308;46.312;25.288;2023-07-20T04:09:43;95580.13;;;19.38;74.78
50394;BME280;36308;46.312;25.288;2023-07-20T04:12:09;95578.19;;;19.39;74.47
50394;BME280;36308;46.312;25.288;2023-07-20T04:14:34;95574.66;;;19.38;74.22
50394;BME280;36308;46.312;25.288;2023-07-20T04:17:00;95578.19;;;19.39;74.16
50394;BME280;36308;46.312;25.288;2023-07-20T04:19:25;95582.38;;;19.36;74.09
50394;BME280;36308;46.312;25.288;2023-07-20T04:21:51;95589.88;;;19.39;74.19
50394;BME280;36308;46.312;25.288;2023-07-20T04:24:17;95598.06;;;19.39;74.36
50394;BME280;36308;46.312;25.288;2023-07-20T04:26:42;95597.75;;;19.41;74.44
50394;BME280;36308;46.312;25.288;2023-07-20T04:29:08;95588.28;;;19.38;74.31
50394;BME280;36308;46.312;25.288;2023-07-20T04:31:33;95599.31;;;19.42;74.07
50394;BME280;36308;46.312;25.288;2023-07-20T04:33:59;95596.28;;;19.44;74.21
50394;BME280;36308;46.312;25.288;2023-07-20T04:36:25;95601.56;;;19.40;74.23
50394;BME280;36308;46.312;25.288;2023-07-20T04:38:50;95609.28;;;19.47;74.38
50394;BME280;36308;46.312;25.288;2023-07-20T04:41:16;95614.38;;;19.48;74.30
50394;BME280;36308;46.312;25.288;2023-07-20T04:43:44;95616.31;;;19.48;74.12
50394;BME280;36308;46.312;25.288;2023-07-20T04:46:12;95618.41;;;19.51;74.27
50394;BME280;36308;46.312;25.288;2023-07-20T04:48:39;95612.13;;;19.50;74.20
50394;BME280;36308;46.312;25.288;2023-07-20T04:51:05;95623.19;;;19.54;74.23
50394;BME280;36308;46.312;25.288;2023-07-20T04:53:31;95631.06;;;19.55;73.98
50394;BME280;36308;46.312;25.288;2023-07-20T04:55:56;95635.06;;;19.58;74.16
50394;BME280;36308;46.312;25.288;2023-07-20T04:58:22;95630.06;;;19.60;74.05
50394;BME280;36308;46.312;25.288;2023-07-20T05:00:49;95642.13;;;19.59;74.14
50394;BME280;36308;46.312;25.288;2023-07-20T05:03:15;95639.22;;;19.64;74.29
50394;BME280;36308;46.312;25.288;2023-07-20T05:05:40;95645.94;;;19.67;74.09
50394;BME280;36308;46.312;25.288;2023-07-20T05:08:06;95647.19;;;19.69;74.21
50394;BME280;36308;46.312;25.288;2023-07-20T05:10:31;95644.47;;;19.69;74.01
50394;BME280;36308;46.312;25.288;2023-07-20T05:12:58;95636.47;;;19.73;73.79
50394;BME280;36308;46.312;25.288;2023-07-20T05:15:24;95631.81;;;19.73;73.94
50394;BME280;36308;46.312;25.288;2023-07-20T05:17:49;95639.84;;;19.78;73.78
50394;BME280;36308;46.312;25.288;2023-07-20T05:22:59;95641.25;;;19.85;73.62
50394;BME280;36308;46.312;25.288;2023-07-20T05:25:25;95639.97;;;19.91;73.52
50394;BME280;36308;46.312;25.288;2023-07-20T05:27:51;95641.22;;;19.93;73.42
50394;BME280;36308;46.312;25.288;2023-07-20T05:30:17;95630.94;;;19.99;73.30
50394;BME280;36308;46.312;25.288;2023-07-20T05:32:43;95625.28;;;20.04;73.14
50394;BME280;36308;46.312;25.288;2023-07-20T05:35:11;95629.78;;;20.09;73.39
50394;BME280;36308;46.312;25.288;2023-07-20T05:37:37;95616.72;;;20.14;73.28
50394;BME280;36308;46.312;25.288;2023-07-20T05:40:04;95614.94;;;20.18;73.26
50394;BME280;36308;46.312;25.288;2023-07-20T05:42:30;95617.50;;;20.24;73.31
50394;BME280;36308;46.312;25.288;2023-07-20T05:44:55;95621.63;;;20.30;73.28
50394;BME280;36308;46.312;25.288;2023-07-20T05:47:21;95624.16;;;20.35;72.95
50394;BME280;36308;46.312;25.288;2023-07-20T05:49:46;95624.78;;;20.41;72.70
50394;BME280;36308;46.312;25.288;2023-07-20T05:52:13;95614.47;;;20.46;72.59
50394;BME280;36308;46.312;25.288;2023-07-20T05:54:38;95624.06;;;20.52;72.65
50394;BME280;36308;46.312;25.288;2023-07-20T05:57:04;95617.28;;;20.58;72.75
50394;BME280;36308;46.312;25.288;2023-07-20T05:59:30;95628.50;;;20.66;72.51
50394;BME280;36308;46.312;25.288;2023-07-20T06:01:55;95629.91;;;20.72;72.28
50394;BME280;36308;46.312;25.288;2023-07-20T06:04:21;95629.03;;;20.80;71.68
50394;BME280;36308;46.312;25.288;2023-07-20T06:06:46;95617.44;;;20.83;70.91
50394;BME280;36308;46.312;25.288;2023-07-20T06:09:13;95618.09;;;21.01;70.31
50394;BME280;36308;46.312;25.288;2023-07-20T06:11:39;95610.75;;;21.14;69.98
50394;BME280;36308;46.312;25.288;2023-07-20T06:14:05;95611.47;;;21.23;69.82
50394;BME280;36308;46.312;25.288;2023-07-20T06:16:30;95602.84;;;21.33;69.29
50394;BME280;36308;46.312;25.288;2023-07-20T06:18:56;95607.13;;;21.43;69.29
50394;BME280;36308;46.312;25.288;2023-07-20T06:21:22;95598.81;;;21.52;68.72
50394;BME280;36308;46.312;25.288;2023-07-20T06:23:47;95596.00;;;21.61;68.50
50394;BME280;36308;46.312;25.288;2023-07-20T06:26:13;95597.47;;;21.70;67.88
50394;BME280;36308;46.312;25.288;2023-07-20T06:28:38;95603.66;;;21.79;67.54
50394;BME280;36308;46.312;25.288;2023-07-20T06:31:04;95603.88;;;21.87;67.13
50394;BME280;36308;46.312;25.288;2023-07-20T06:33:29;95602.66;;;21.96;66.62
50394;BME280;36308;46.312;25.288;2023-07-20T06:35:55;95603.22;;;22.02;66.22
50394;BME280;36308;46.312;25.288;2023-07-20T06:38:22;95601.41;;;22.06;66.38
50394;BME280;36308;46.312;25.288;2023-07-20T06:40:49;95600.03;;;22.12;66.45
50394;BME280;36308;46.312;25.288;2023-07-20T06:43:15;95597.84;;;22.18;66.56
50394;BME280;36308;46.312;25.288;2023-07-20T06:45:40;95609.19;;;22.29;66.93
50394;BME280;36308;46.312;25.288;2023-07-20T06:48:06;95608.69;;;22.39;67.02
50394;BME280;36308;46.312;25.288;2023-07-20T06:50:31;95606.66;;;22.48;66.55
50394;BME280;36308;46.312;25.288;2023-07-20T06:52:57;95608.47;;;22.56;66.03
50394;BME280;36308;46.312;25.288;2023-07-20T06:55:24;95611.06;;;22.65;65.83
50394;BME280;36308;46.312;25.288;2023-07-20T06:57:49;95611.31;;;22.72;65.64
50394;BME280;36308;46.312;25.288;2023-07-20T07:00:16;95608.41;;;22.81;65.63
50394;BME280;36308;46.312;25.288;2023-07-20T07:02:41;95617.28;;;22.90;65.77
50394;BME280;36308;46.312;25.288;2023-07-20T07:05:07;95618.44;;;23.02;65.74
50394;BME280;36308;46.312;25.288;2023-07-20T07:07:32;95614.75;;;23.10;65.56
50394;BME280;36308;46.312;25.288;2023-07-20T07:09:59;95611.06;;;23.18;65.72
50394;BME280;36308;46.312;25.288;2023-07-20T07:12:25;95606.13;;;23.24;65.55
50394;BME280;36308;46.312;25.288;2023-07-20T07:14:50;95610.75;;;23.35;65.33
50394;BME280;36308;46.312;25.288;2023-07-20T07:17:16;95607.84;;;23.44;65.29
50394;BME280;36308;46.312;25.288;2023-07-20T07:19:41;95608.84;;;23.52;65.00
50394;BME280;36308;46.312;25.288;2023-07-20T07:22:07;95614.63;;;23.63;64.91
50394;BME280;36308;46.312;25.288;2023-07-20T07:24:33;95610.34;;;23.65;64.77
50394;BME280;36308;46.312;25.288;2023-07-20T07:27:02;95622.19;;;23.82;64.66
50394;BME280;36308;46.312;25.288;2023-07-20T07:29:28;95622.81;;;23.91;64.80
50394;BME280;36308;46.312;25.288;2023-07-20T07:31:53;95615.63;;;24.02;64.40
50394;BME280;36308;46.312;25.288;2023-07-20T07:34:19;95613.50;;;24.11;64.45
50394;BME280;36308;46.312;25.288;2023-07-20T07:36:44;95616.44;;;24.18;63.98
50394;BME280;36308;46.312;25.288;2023-07-20T07:39:10;95617.03;;;24.28;63.77
50394;BME280;36308;46.312;25.288;2023-07-20T07:41:36;95622.81;;;24.38;63.68
50394;BME280;36308;46.312;25.288;2023-07-20T07:44:02;95623.06;;;24.49;63.41
50394;BME280;36308;46.312;25.288;2023-07-20T07:46:27;95613.13;;;24.60;63.60
50394;BME280;36308;46.312;25.288;2023-07-20T07:48:53;95624.34;;;24.71;62.69
50394;BME280;36308;46.312;25.288;2023-07-20T07:51:19;95617.50;;;24.81;62.84
50394;BME280;36308;46.312;25.288;2023-07-20T07:53:46;95627.94;;;24.91;62.60
50394;BME280;36308;46.312;25.288;2023-07-20T07:56:11;95627.34;;;25.01;62.39
50394;BME280;36308;46.312;25.288;2023-07-20T07:58:37;95627.22;;;25.14;62.58
50394;BME280;36308;46.312;25.288;2023-07-20T08:01:04;95625.56;;;25.29;62.38
50394;BME280;36308;46.312;25.288;2023-07-20T08:03:29;95621.06;;;25.40;61.97
50394;BME280;36308;46.312;25.288;2023-07-20T08:05:55;95625.28;;;25.53;61.53
50394;BME280;36308;46.312;25.288;2023-07-20T08:08:21;95620.75;;;25.65;61.43
50394;BME280;36308;46.312;25.288;2023-07-20T08:10:46;95616.59;;;25.74;60.66
50394;BME280;36308;46.312;25.288;2023-07-20T08:16:15;95614.38;;;26.03;59.72
50394;BME280;36308;46.312;25.288;2023-07-20T08:18:41;95605.94;;;26.15;59.10
50394;BME280;36308;46.312;25.288;2023-07-20T08:21:07;95602.97;;;26.28;58.13
50394;BME280;36308;46.312;25.288;2023-07-20T08:23:32;95608.28;;;26.40;58.14
50394;BME280;36308;46.312;25.288;2023-07-20T08:25:58;95606.13;;;26.53;57.73
50394;BME280;36308;46.312;25.288;2023-07-20T08:28:23;95608.31;;;26.67;57.27
50394;BME280;36308;46.312;25.288;2023-07-20T08:30:49;95607.66;;;26.77;56.28
50394;BME280;36308;46.312;25.288;2023-07-20T08:33:17;95610.19;;;26.89;55.58
50394;BME280;36308;46.312;25.288;2023-07-20T08:35:46;95604.81;;;27.00;55.09
50394;BME280;36308;46.312;25.288;2023-07-20T08:38:11;95604.97;;;27.11;54.82
50394;BME280;36308;46.312;25.288;2023-07-20T08:40:43;95610.56;;;27.18;54.38
50394;BME280;36308;46.312;25.288;2023-07-20T08:43:10;95608.34;;;27.27;53.77
50394;BME280;36308;46.312;25.288;2023-07-20T08:45:38;95610.00;;;27.35;53.71
50394;BME280;36308;46.312;25.288;2023-07-20T08:48:08;95617.94;;;27.40;53.29
50394;BME280;36308;46.312;25.288;2023-07-20T08:50:35;95612.53;;;27.48;53.09
50394;BME280;36308;46.312;25.288;2023-07-20T08:53:01;95620.44;;;27.53;52.70
50394;BME280;36308;46.312;25.288;2023-07-20T08:55:28;95619.72;;;27.59;52.54
50394;BME280;36308;46.312;25.288;2023-07-20T08:57:56;95617.44;;;27.65;52.63
50394;BME280;36308;46.312;25.288;2023-07-20T09:00:22;95619.50;;;27.75;52.87
50394;BME280;36308;46.312;25.288;2023-07-20T09:02:53;95617.22;;;27.85;52.91
50394;BME280;36308;46.312;25.288;2023-07-20T09:05:23;95621.72;;;27.96;52.79
50394;BME280;36308;46.312;25.288;2023-07-20T09:07:50;95621.81;;;28.07;51.28
50394;BME280;36308;46.312;25.288;2023-07-20T09:10:16;95620.69;;;28.15;50.51
50394;BME280;36308;46.312;25.288;2023-07-20T09:12:43;95614.81;;;28.20;51.01
50394;BME280;36308;46.312;25.288;2023-07-20T09:15:10;95620.81;;;28.30;51.21
50394;BME280;36308;46.312;25.288;2023-07-20T09:17:37;95619.69;;;28.38;51.03
50394;BME280;36308;46.312;25.288;2023-07-20T09:20:07;95598.47;;;28.49;51.12
50394;BME280;36308;46.312;25.288;2023-07-20T09:22:37;95604.88;;;28.60;50.72
50394;BME280;36308;46.312;25.288;2023-07-20T09:25:11;95609.31;;;28.76;50.59
50394;BME280;36308;46.312;25.288;2023-07-20T09:27:38;95597.91;;;28.88;50.28
50394;BME280;36308;46.312;25.288;2023-07-20T09:30:04;95600.34;;;29.00;49.54
50394;BME280;36308;46.312;25.288;2023-07-20T09:32:38;95597.63;;;29.08;49.34
50394;BME280;36308;46.312;25.288;2023-07-20T09:35:05;95591.75;;;29.16;49.34
50394;BME280;36308;46.312;25.288;2023-07-20T09:37:32;95597.31;;;29.24;48.80
50394;BME280;36308;46.312;25.288;2023-07-20T09:39:59;95600.50;;;29.29;48.13
50394;BME280;36308;46.312;25.288;2023-07-20T09:42:25;95587.88;;;29.35;47.26
50394;BME280;36308;46.312;25.288;2023-07-20T09:44:52;95587.88;;;29.42;47.24
50394;BME280;36308;46.312;25.288;2023-07-20T09:47:22;95587.13;;;29.49;46.16
50394;BME280;36308;46.312;25.288;2023-07-20T09:49:48;95583.97;;;29.58;46.06
50394;BME280;36308;46.312;25.288;2023-07-20T09:52:14;95586.41;;;29.70;46.83
50394;BME280;36308;46.312;25.288;2023-07-20T09:54:44;95584.84;;;29.87;46.43
50394;BME280;36308;46.312;25.288;2023-07-20T09:57:11;95582.88;;;30.02;45.98
50394;BME280;36308;46.312;25.288;2023-07-20T09:59:39;95589.59;;;30.19;45.56
50394;BME280;36308;46.312;25.288;2023-07-20T10:02:12;95580.13;;;30.34;45.55
50394;BME280;36308;46.312;25.288;2023-07-20T10:04:41;95575.34;;;30.49;43.91
50394;BME280;36308;46.312;25.288;2023-07-20T10:07:10;95566.63;;;30.61;43.73
50394;BME280;36308;46.312;25.288;2023-07-20T10:09:40;95569.75;;;30.74;43.41
50394;BME280;36308;46.312;25.288;2023-07-20T10:12:08;95572.91;;;30.87;43.55
50394;BME280;36308;46.312;25.288;2023-07-20T10:14:38;95566.13;;;31.02;44.03
50394;BME280;36308;46.312;25.288;2023-07-20T10:17:07;95567.25;;;31.16;43.12
50394;BME280;36308;46.312;25.288;2023-07-20T10:19:46;95558.47;;;31.28;42.87
50394;BME280;36308;46.312;25.288;2023-07-20T10:22:24;95547.72;;;31.37;42.50
50394;BME280;36308;46.312;25.288;2023-07-20T10:24:51;95543.31;;;31.47;42.40
50394;BME280;36308;46.312;25.288;2023-07-20T10:27:20;95549.19;;;31.60;42.42
50394;BME280;36308;46.312;25.288;2023-07-20T10:29:46;95543.16;;;31.72;42.31
50394;BME280;36308;46.312;25.288;2023-07-20T10:32:12;95536.75;;;31.82;41.56
50394;BME280;36308;46.312;25.288;2023-07-20T10:34:39;95534.72;;;31.90;40.91
50394;BME280;36308;46.312;25.288;2023-07-20T10:37:04;95530.66;;;31.98;41.09
50394;BME280;36308;46.312;25.288;2023-07-20T10:39:33;95527.03;;;32.09;40.75
50394;BME280;36308;46.312;25.288;2023-07-20T10:42:09;95525.34;;;32.18;40.95
50394;BME280;36308;46.312;25.288;2023-07-20T10:44:39;95527.69;;;32.27;40.32
50394;BME280;36308;46.312;25.288;2023-07-20T10:47:09;95531.63;;;32.30;39.11
50394;BME280;36308;46.312;25.288;2023-07-20T10:49:38;95537.94;;;32.34;39.52
50394;BME280;36308;46.312;25.288;2023-07-20T10:52:21;95550.56;;;32.42;38.94
50394;BME280;36308;46.312;25.288;2023-07-20T10:54:47;95550.53;;;32.46;38.11
50394;BME280;36308;46.312;25.288;2023-07-20T10:57:24;95542.53;;;32.51;37.96
50394;BME280;36308;46.312;25.288;2023-07-20T10:59:50;95537.72;;;32.59;38.11
50394;BME280;36308;46.312;25.288;2023-07-20T11:02:18;95540.78;;;32.68;38.22
50394;BME280;36308;46.312;25.288;2023-07-20T11:04:46;95537.53;;;32.77;38.35
50394;BME280;36308;46.312;25.288;2023-07-20T11:07:37;95543.75;;;32.88;37.12
50394;BME280;36308;46.312;25.288;2023-07-20T11:10:13;95546.44;;;32.95;37.26
50394;BME280;36308;46.312;25.288;2023-07-20T11:13:16;95544.84;;;32.98;37.66
50394;BME280;36308;46.312;25.288;2023-07-20T11:15:46;95539.59;;;33.03;37.45
50394;BME280;36308;46.312;25.288;2023-07-20T11:18:13;95551.91;;;33.06;37.94
50394;BME280;36308;46.312;25.288;2023-07-20T11:20:39;95553.09;;;33.09;37.41
50394;BME280;36308;46.312;25.288;2023-07-20T11:23:05;95566.53;;;33.14;37.97
50394;BME280;36308;46.312;25.288;2023-07-20T11:25:39;95568.88;;;33.19;38.22
50394;BME280;36308;46.312;25.288;2023-07-20T11:28:09;95556.16;;;33.18;37.59
50394;BME280;36308;46.312;25.288;2023-07-20T11:30:37;95560.53;;;33.19;37.57
50394;BME280;36308;46.312;25.288;2023-07-20T11:33:03;95564.50;;;33.18;37.94
50394;BME280;36308;46.312;25.288;2023-07-20T11:35:29;95560.13;;;33.20;38.33
50394;BME280;36308;46.312;25.288;2023-07-20T11:37:55;95567.25;;;33.21;38.43
50394;BME280;36308;46.312;25.288;2023-07-20T11:40:22;95561.69;;;33.21;38.12
50394;BME280;36308;46.312;25.288;2023-07-20T11:42:47;95555.78;;;33.16;38.28
50394;BME280;36308;46.312;25.288;2023-07-20T11:45:16;95542.69;;;33.13;38.67
50394;BME280;36308;46.312;25.288;2023-07-20T11:47:43;95540.34;;;33.08;38.78
50394;BME280;36308;46.312;25.288;2023-07-20T11:50:09;95543.16;;;33.08;38.59
50394;BME280;36308;46.312;25.288;2023-07-20T11:52:36;95534.44;;;33.02;38.65
50394;BME280;36308;46.312;25.288;2023-07-20T11:55:03;95546.03;;;32.97;38.51
50394;BME280;36308;46.312;25.288;2023-07-20T11:57:29;95550.88;;;32.89;38.37
50394;BME280;36308;46.312;25.288;2023-07-20T12:02:24;95558.34;;;32.61;38.16
50394;BME280;36308;46.312;25.288;2023-07-20T12:04:52;95555.72;;;32.43;38.18
50394;BME280;36308;46.312;25.288;2023-07-20T12:07:19;95552.28;;;32.29;37.96
50394;BME280;36308;46.312;25.288;2023-07-20T12:09:45;95551.63;;;32.10;38.06
50394;BME280;36308;46.312;25.288;2023-07-20T12:12:28;95577.19;;;31.91;38.82
50394;BME280;36308;46.312;25.288;2023-07-20T12:14:53;95576.50;;;31.76;38.71
50394;BME280;36308;46.312;25.288;2023-07-20T12:17:19;95576.59;;;31.58;38.92
50394;BME280;36308;46.312;25.288;2023-07-20T12:19:44;95575.84;;;31.43;39.36
50394;BME280;36308;46.312;25.288;2023-07-20T12:22:10;95578.72;;;31.29;39.68
50394;BME280;36308;46.312;25.288;2023-07-20T12:24:36;95590.66;;;31.15;40.47
50394;BME280;36308;46.312;25.288;2023-07-20T12:27:03;95594.28;;;31.01;41.19
50394;BME280;36308;46.312;25.288;2023-07-20T12:29:28;95597.91;;;30.87;41.41
50394;BME280;36308;46.312;25.288;2023-07-20T12:31:54;95600.66;;;30.73;41.89
50394;BME280;36308;46.312;25.288;2023-07-20T12:34:20;95607.06;;;30.59;42.65
50394;BME280;36308;46.312;25.288;2023-07-20T12:36:45;95615.78;;;30.43;42.53
50394;BME280;36308;46.312;25.288;2023-07-20T12:39:11;95614.16;;;30.28;43.07
50394;BME280;36308;46.312;25.288;2023-07-20T12:41:36;95626.06;;;30.14;43.84
50394;BME280;36308;46.312;25.288;2023-07-20T12:44:02;95629.59;;;30.00;43.73
50394;BME280;36308;46.312;25.288;2023-07-20T12:46:27;95626.78;;;29.86;44.30
50394;BME280;36308;46.312;25.288;2023-07-20T12:48:54;95595.06;;;29.69;44.94
50394;BME280;36308;46.312;25.288;2023-07-20T12:51:19;95576.84;;;29.57;45.56
50394;BME280;36308;46.312;25.288;2023-07-20T12:53:45;95582.34;;;29.42;45.73
50394;BME280;36308;46.312;25.288;2023-07-20T12:56:10;95587.06;;;29.31;46.28
50394;BME280;36308;46.312;25.288;2023-07-20T12:58:36;95588.59;;;29.21;46.76
50394;BME280;36308;46.312;25.288;2023-07-20T13:01:02;95586.59;;;29.11;47.44
50394;BME280;36308;46.312;25.288;2023-07-20T13:03:28;95584.53;;;28.97;47.50
50394;BME280;36308;46.312;25.288;2023-07-20T13:05:53;95576.19;;;28.87;47.98
50394;BME280;36308;46.312;25.288;2023-07-20T13:08:19;95572.19;;;28.77;47.99